Time;durP1;ratioP1;P1;durP2;ratioP2;P2;SDS_P1;SDS_P2;PMS_P1;PMS_P2;Temp;Humidity;BMP_temperature;BMP_pressure;BME280_temperature;BME280_humidity;BME280_pressure;Samples;Min_cycle;Max_cycle;Signal;HPM_P1;HPM_P2
2023/07/27 00:01:28;;;;;;;9.80;6.28;;;19.40;99.90;;;;;;4963936;28;20045;-75
2023/07/27 00:03:54;;;;;;;10.68;6.65;;;19.20;99.90;;;;;;4974175;28;20030;-71
2023/07/27 00:06:20;;;;;;;12.50;6.80;;;19.30;99.90;;;;;;4963838;28;20469;-71
2023/07/27 00:08:46;;;;;;;12.10;6.60;;;19.20;99.90;;;;;;4954858;28;20079;-72
2023/07/27 00:11:12;;;;;;;6.78;6.10;;;19.20;99.90;;;;;;4954438;29;20030;-70
2023/07/27 00:13:38;;;;;;;10.60;7.55;;;19.20;99.90;;;;;;4954028;29;20023;-71
2023/07/27 00:16:04;;;;;;;10.52;7.78;;;19.20;99.90;;;;;;4946518;29;20024;-73
2023/07/27 00:18:29;;;;;;;13.25;8.80;;;19.20;99.90;;;;;;4935449;29;20039;-72
2023/07/27 00:20:55;;;;;;;10.88;8.90;;;19.20;99.90;;;;;;4935315;29;20039;-73
2023/07/27 00:23:21;;;;;;;10.77;8.52;;;19.10;99.90;;;;;;4935567;29;20024;-73
2023/07/27 00:25:46;;;;;;;10.68;8.73;;;19.10;99.90;;;;;;4934968;29;20027;-70
2023/07/27 00:28:12;;;;;;;11.93;8.70;;;19.20;99.90;;;;;;4935049;29;20035;-73
2023/07/27 00:30:38;;;;;;;16.05;9.43;;;19.20;99.90;;;;;;4935426;29;20405;-74
2023/07/27 00:33:03;;;;;;;13.02;8.43;;;19.20;99.90;;;;;;4935243;29;20023;-72
2023/07/27 00:35:29;;;;;;;12.93;7.65;;;19.10;99.90;;;;;;4935410;29;20024;-72
2023/07/27 00:37:54;;;;;;;15.23;7.93;;;19.10;99.90;;;;;;4935201;29;20114;-71
2023/07/27 00:40:20;;;;;;;12.27;8.98;;;19.00;99.90;;;;;;4940842;29;20075;-70
2023/07/27 00:42:46;;;;;;;15.23;9.05;;;19.10;99.90;;;;;;4939151;28;20035;-71
2023/07/27 00:45:11;;;;;;;15.43;9.60;;;19.00;99.90;;;;;;4935110;29;20401;-70
2023/07/27 00:47:37;;;;;;;16.13;8.55;;;18.90;99.90;;;;;;4934929;29;20028;-75
2023/07/27 00:50:04;;;;;;;13.20;8.40;;;18.90;99.90;;;;;;4935045;29;20039;-70
2023/07/27 00:52:29;;;;;;;13.73;7.35;;;18.80;99.90;;;;;;4935199;29;20028;-70
2023/07/27 00:54:57;;;;;;;13.00;8.32;;;18.80;99.90;;;;;;4934805;29;20031;-71
2023/07/27 00:57:23;;;;;;;12.13;7.43;;;18.90;99.90;;;;;;4934840;29;20461;-70
2023/07/27 00:59:49;;;;;;;10.68;7.32;;;18.80;99.90;;;;;;4935073;29;20027;-71
2023/07/27 01:02:15;;;;;;;12.23;8.18;;;18.70;99.90;;;;;;4935010;29;20090;-73
2023/07/27 01:04:41;;;;;;;13.57;7.97;;;18.80;99.90;;;;;;4934797;29;20473;-70
2023/07/27 01:07:07;;;;;;;11.88;7.18;;;18.60;99.90;;;;;;4951039;28;20373;-70
2023/07/27 01:09:32;;;;;;;11.13;7.45;;;18.70;99.90;;;;;;4953760;29;20070;-70
2023/07/27 01:12:09;;;;;;;11.93;7.75;;;18.80;99.90;;;;;;4953949;29;20075;-71
2023/07/27 01:14:45;;;;;;;15.23;8.00;;;18.70;99.90;;;;;;4953935;29;20036;-71
2023/07/27 01:17:48;;;;;;;13.00;7.72;;;18.70;99.90;;;;;;4953642;28;20481;-71
2023/07/27 01:20:36;;;;;;;11.85;8.30;;;18.90;99.90;;;;;;4952427;28;20039;-70
2023/07/27 01:23:44;;;;;;;11.43;8.10;;;18.90;99.90;;;;;;4953535;29;20162;-71
2023/07/27 01:26:48;;;;;;;9.88;7.10;;;18.90;99.90;;;;;;4953563;28;20034;-70
2023/07/27 01:29:45;;;;;;;12.25;8.57;;;18.70;99.90;;;;;;4952468;28;20122;-70
2023/07/27 01:32:13;;;;;;;18.42;9.20;;;18.60;99.90;;;;;;4953794;28;20028;-70
2023/07/27 01:34:43;;;;;;;17.40;9.48;;;18.50;99.90;;;;;;4955103;28;20035;-71
2023/07/27 01:37:11;;;;;;;12.73;7.63;;;18.50;99.90;;;;;;4972757;28;20031;-71
2023/07/27 01:39:43;;;;;;;14.02;8.30;;;18.60;99.90;;;;;;4972787;28;20045;-69
2023/07/27 01:42:11;;;;;;;12.27;8.90;;;18.60;99.90;;;;;;4972889;28;20491;-71
2023/07/27 01:44:38;;;;;;;12.88;7.90;;;18.50;99.90;;;;;;4972849;28;20030;-71
2023/07/27 01:47:05;;;;;;;14.98;8.35;;;18.60;99.90;;;;;;4971610;28;20105;-71
2023/07/27 01:49:32;;;;;;;14.07;9.25;;;18.60;99.90;;;;;;4972897;28;20053;-70
2023/07/27 01:51:58;;;;;;;21.05;10.40;;;18.50;99.90;;;;;;4973647;28;20023;-72
2023/07/27 01:54:26;;;;;;;15.50;9.50;;;18.30;99.90;;;;;;4976483;28;20042;-70
2023/07/27 01:56:54;;;;;;;16.60;8.88;;;18.30;99.90;;;;;;4958461;28;20027;-70
2023/07/27 01:59:21;;;;;;;9.82;8.10;;;18.40;99.90;;;;;;4956894;28;20039;-71
2023/07/27 02:01:49;;;;;;;14.38;9.63;;;18.50;99.90;;;;;;4957283;28;20082;-70
2023/07/27 02:04:14;;;;;;;15.48;9.73;;;18.60;99.90;;;;;;4957016;28;20512;-71
2023/07/27 02:06:40;;;;;;;16.40;8.88;;;18.50;99.90;;;;;;4955295;28;20034;-71
2023/07/27 02:09:06;;;;;;;17.90;10.75;;;18.40;99.90;;;;;;4956550;28;20027;-71
2023/07/27 02:11:33;;;;;;;13.88;9.68;;;18.40;99.90;;;;;;4955703;29;20035;-70
2023/07/27 02:14:43;;;;;;;15.27;9.75;;;18.40;99.90;;;;;;4956917;28;20026;-70
2023/07/27 02:17:16;;;;;;;14.18;9.98;;;18.40;99.90;;;;;;4956662;28;20019;-71
2023/07/27 02:19:44;;;;;;;16.15;9.43;;;18.50;99.90;;;;;;4956246;28;20031;-71
2023/07/27 02:22:11;;;;;;;17.83;10.38;;;18.40;99.90;;;;;;4955273;28;20392;-71
2023/07/27 02:24:37;;;;;;;12.35;9.82;;;18.40;99.90;;;;;;4956691;28;20027;-70
2023/07/27 02:27:04;;;;;;;12.43;9.63;;;18.30;99.90;;;;;;4956557;28;20444;-71
2023/07/27 02:29:29;;;;;;;12.40;9.05;;;18.30;99.90;;;;;;4956260;28;20506;-70
2023/07/27 02:31:55;;;;;;;11.07;8.25;;;18.40;99.90;;;;;;4956578;29;20035;-70
2023/07/27 02:34:20;;;;;;;14.80;9.10;;;18.40;99.90;;;;;;4956133;29;20035;-69
2023/07/27 02:36:46;;;;;;;14.85;9.35;;;18.40;99.90;;;;;;4956299;28;20031;-75
2023/07/27 02:39:12;;;;;;;11.75;7.70;;;18.40;99.90;;;;;;4956824;28;20118;-78
2023/07/27 02:41:37;;;;;;;11.13;7.80;;;18.30;99.90;;;;;;4950464;29;20480;-71
2023/07/27 02:44:03;;;;;;;11.98;7.95;;;18.10;99.90;;;;;;4946631;28;20031;-70
2023/07/27 02:46:29;;;;;;;11.18;7.90;;;18.10;99.90;;;;;;4935837;29;20040;-73
2023/07/27 02:48:55;;;;;;;13.05;8.02;;;18.00;99.90;;;;;;4937019;29;20034;-73
2023/07/27 02:51:21;;;;;;;10.45;7.15;;;18.10;99.90;;;;;;4936897;29;20019;-70
2023/07/27 02:53:47;;;;;;;10.48;7.60;;;17.90;99.90;;;;;;4937174;29;20111;-71
2023/07/27 02:56:12;;;;;;;12.30;7.50;;;17.90;99.90;;;;;;4936725;29;20536;-72
2023/07/27 02:58:38;;;;;;;10.55;8.23;;;17.80;99.90;;;;;;4936580;29;20023;-70
2023/07/27 03:01:04;;;;;;;11.05;8.20;;;17.80;99.90;;;;;;4936769;29;20032;-70
2023/07/27 03:03:29;;;;;;;10.50;7.03;;;17.80;99.90;;;;;;4936161;29;20027;-73
2023/07/27 03:06:00;;;;;;;12.43;7.35;;;17.80;99.90;;;;;;4943511;28;20078;-71
2023/07/27 03:08:26;;;;;;;12.15;7.35;;;17.70;99.90;;;;;;4956028;29;20110;-70
2023/07/27 03:10:52;;;;;;;9.63;6.53;;;17.80;99.90;;;;;;4955764;28;20031;-70
2023/07/27 03:13:18;;;;;;;8.45;6.75;;;17.70;99.90;;;;;;4955813;29;20027;-75
2023/07/27 03:15:44;;;;;;;8.45;6.47;;;17.70;99.90;;;;;;4955892;28;20392;-76
2023/07/27 03:18:09;;;;;;;8.32;6.43;;;17.50;99.90;;;;;;4955291;28;20491;-69
2023/07/27 03:20:41;;;;;;;11.23;7.53;;;17.60;99.90;;;;;;4955463;28;20403;-69
2023/07/27 03:23:08;;;;;;;9.38;6.93;;;17.70;99.90;;;;;;4955749;28;20051;-75
2023/07/27 03:25:37;;;;;;;9.48;6.10;;;17.60;99.90;;;;;;4955054;28;20030;-69
2023/07/27 03:28:05;;;;;;;10.88;6.82;;;17.70;99.90;;;;;;4955485;29;20042;-77
2023/07/27 03:30:31;;;;;;;10.40;6.60;;;17.60;99.90;;;;;;4955474;28;20384;-75
2023/07/27 03:32:57;;;;;;;10.15;7.28;;;17.60;99.90;;;;;;4955322;28;20102;-76
2023/07/27 03:35:23;;;;;;;11.27;7.20;;;17.50;99.90;;;;;;4955598;28;20046;-72
2023/07/27 03:37:50;;;;;;;9.88;6.72;;;17.30;99.90;;;;;;4955713;29;20035;-73
2023/07/27 03:40:17;;;;;;;10.10;6.70;;;17.10;99.90;;;;;;4955315;28;20366;-71
2023/07/27 03:42:42;;;;;;;8.43;6.88;;;17.20;99.90;;;;;;4955073;28;20024;-78
2023/07/27 03:45:09;;;;;;;9.63;6.97;;;17.20;99.90;;;;;;4955134;29;20110;-73
2023/07/27 03:47:34;;;;;;;10.05;6.00;;;17.20;99.90;;;;;;4954953;29;20042;-73
2023/07/27 03:50:00;;;;;;;8.30;5.60;;;17.10;99.90;;;;;;4955295;28;20484;-72
2023/07/27 03:52:26;;;;;;;10.18;6.22;;;17.20;99.90;;;;;;4955080;29;20023;-75
2023/07/27 03:54:52;;;;;;;12.18;7.03;;;17.20;99.90;;;;;;4955092;29;20075;-71
2023/07/27 03:57:17;;;;;;;10.35;7.50;;;17.20;99.90;;;;;;4954896;28;20047;-71
2023/07/27 03:59:43;;;;;;;6.82;5.55;;;17.10;99.90;;;;;;4954722;29;20035;-73
2023/07/27 04:02:08;;;;;;;11.90;5.93;;;17.20;99.90;;;;;;4954527;28;20034;-71
2023/07/27 04:04:34;;;;;;;11.05;7.05;;;17.20;99.90;;;;;;4954529;28;20505;-71
2023/07/27 04:07:00;;;;;;;9.45;6.88;;;17.10;99.90;;;;;;4954347;28;20027;-71
2023/07/27 04:09:25;;;;;;;9.80;6.68;;;17.00;99.90;;;;;;4954886;29;20027;-72
2023/07/27 04:11:52;;;;;;;9.43;5.78;;;17.10;99.90;;;;;;4954346;29;20035;-71
2023/07/27 04:14:18;;;;;;;6.60;5.90;;;17.10;99.90;;;;;;4954783;29;20099;-71
2023/07/27 04:16:43;;;;;;;6.68;5.72;;;17.10;99.90;;;;;;4953373;28;20496;-72
2023/07/27 04:19:09;;;;;;;7.43;6.35;;;17.10;99.90;;;;;;4954182;28;20024;-71
2023/07/27 04:21:35;;;;;;;9.68;6.63;;;17.10;99.90;;;;;;4954538;29;20043;-71
2023/07/27 04:24:01;;;;;;;7.28;6.07;;;17.10;99.90;;;;;;4954614;29;20078;-71
2023/07/27 04:26:26;;;;;;;9.13;6.88;;;17.20;99.90;;;;;;4954371;28;20396;-71
2023/07/27 04:28:52;;;;;;;8.23;6.32;;;17.20;99.90;;;;;;4954569;28;20020;-72
2023/07/27 04:31:18;;;;;;;7.60;6.13;;;17.30;99.90;;;;;;4953753;28;20027;-71
2023/07/27 04:33:43;;;;;;;7.07;6.00;;;17.40;99.90;;;;;;4951828;29;20046;-72
2023/07/27 04:36:09;;;;;;;8.13;5.75;;;17.40;99.90;;;;;;4945074;28;20034;-71
2023/07/27 04:38:34;;;;;;;8.32;6.53;;;17.30;99.90;;;;;;4935158;29;20069;-70
2023/07/27 04:41:00;;;;;;;9.02;6.18;;;17.20;99.90;;;;;;4935145;29;20493;-71
2023/07/27 04:43:26;;;;;;;8.32;6.57;;;17.20;99.90;;;;;;4935114;29;20096;-73
2023/07/27 04:45:51;;;;;;;8.10;5.78;;;17.30;99.90;;;;;;4934886;29;20027;-71
2023/07/27 04:48:17;;;;;;;8.52;6.32;;;17.30;99.90;;;;;;4935026;29;20377;-71
2023/07/27 04:50:43;;;;;;;6.95;6.28;;;17.30;99.90;;;;;;4935032;29;20066;-71
2023/07/27 04:53:08;;;;;;;6.00;4.80;;;17.20;99.90;;;;;;4935147;29;20031;-72
2023/07/27 04:55:34;;;;;;;6.03;4.93;;;17.30;99.90;;;;;;4934746;29;20024;-71
2023/07/27 04:58:00;;;;;;;5.72;5.05;;;17.30;99.90;;;;;;4934791;29;20027;-71
2023/07/27 05:00:25;;;;;;;8.65;5.72;;;17.20;99.90;;;;;;4934197;29;20536;-71
2023/07/27 05:02:51;;;;;;;7.90;6.13;;;17.40;99.90;;;;;;4949403;29;20066;-70
2023/07/27 05:05:16;;;;;;;8.27;5.13;;;17.30;99.90;;;;;;4951003;28;20042;-69
2023/07/27 05:07:42;;;;;;;6.70;5.13;;;17.30;99.90;;;;;;4953835;28;20032;-70
2023/07/27 05:10:08;;;;;;;5.53;4.75;;;17.20;99.90;;;;;;4953327;28;20476;-72
2023/07/27 05:12:33;;;;;;;6.00;5.38;;;17.10;99.90;;;;;;4953971;28;20042;-71
2023/07/27 05:15:00;;;;;;;4.80;4.28;;;17.30;99.90;;;;;;4953784;29;20031;-71
2023/07/27 05:17:25;;;;;;;5.38;4.88;;;17.30;99.90;;;;;;4952512;28;20039;-71
2023/07/27 05:19:53;;;;;;;5.70;5.00;;;17.30;99.90;;;;;;4953707;29;20110;-71
2023/07/27 05:22:19;;;;;;;5.00;4.50;;;17.40;99.90;;;;;;4952785;29;20023;-71
2023/07/27 05:24:45;;;;;;;5.30;4.80;;;17.40;99.90;;;;;;4953644;29;20027;-70
2023/07/27 05:27:10;;;;;;;5.82;4.82;;;17.40;99.90;;;;;;4948223;28;20040;-71
2023/07/27 05:29:36;;;;;;;5.25;4.55;;;17.40;99.90;;;;;;4944981;28;20498;-71
2023/07/27 05:32:02;;;;;;;5.03;3.63;;;17.50;99.90;;;;;;4938419;29;20079;-71
2023/07/27 05:34:28;;;;;;;3.60;3.30;;;17.50;99.90;;;;;;4938059;29;20024;-72
2023/07/27 05:36:53;;;;;;;4.05;3.75;;;17.50;99.90;;;;;;4938243;29;20441;-71
2023/07/27 05:39:19;;;;;;;5.93;4.18;;;17.60;99.90;;;;;;4938179;29;20473;-71
2023/07/27 05:41:45;;;;;;;4.50;4.10;;;17.60;99.90;;;;;;4952964;29;20102;-70
2023/07/27 05:44:10;;;;;;;5.10;3.53;;;17.60;99.90;;;;;;4937923;29;20024;-71
2023/07/27 05:46:36;;;;;;;3.83;3.47;;;17.60;99.90;;;;;;4938142;29;20036;-71
2023/07/27 05:49:04;;;;;;;3.75;3.40;;;17.60;99.90;;;;;;4938093;29;20103;-70
2023/07/27 05:51:30;;;;;;;3.60;3.30;;;17.70;99.90;;;;;;4938092;29;20039;-71
2023/07/27 05:53:55;;;;;;;4.47;3.20;;;17.60;99.90;;;;;;4937330;29;20036;-71
2023/07/27 05:56:21;;;;;;;3.80;3.50;;;17.70;99.90;;;;;;4949282;28;20420;-71
2023/07/27 05:58:46;;;;;;;3.20;3.00;;;17.70;99.90;;;;;;4955950;28;20031;-71
2023/07/27 06:01:14;;;;;;;4.45;2.97;;;17.70;99.90;;;;;;4956838;28;20476;-73
2023/07/27 06:03:39;;;;;;;3.15;2.95;;;17.60;99.90;;;;;;4956942;28;20063;-70
2023/07/27 06:06:06;;;;;;;3.90;3.50;;;17.60;99.90;;;;;;4955360;28;20031;-86
2023/07/27 06:08:33;;;;;;;5.05;3.47;;;17.70;99.90;;;;;;4949251;29;20377;-77
2023/07/27 06:11:04;;;;;;;3.03;2.80;;;17.70;99.90;;;;;;4942220;28;20140;-76
2023/07/27 06:13:31;;;;;;;3.00;2.80;;;17.70;99.90;;;;;;4953487;29;20110;-74
2023/07/27 06:15:57;;;;;;;3.35;3.05;;;17.90;99.90;;;;;;4956805;28;20023;-77
2023/07/27 06:18:23;;;;;;;3.78;2.80;;;17.90;99.90;;;;;;4956974;28;20159;-79
2023/07/27 06:20:49;;;;;;;4.03;3.08;;;18.00;99.90;;;;;;4956102;28;20122;-73
2023/07/27 06:23:14;;;;;;;3.10;2.90;;;18.00;99.90;;;;;;4956446;28;20110;-77
2023/07/27 06:25:44;;;;;;;3.05;2.75;;;17.90;99.90;;;;;;4956322;28;20023;-78
2023/07/27 06:28:10;;;;;;;2.92;2.72;;;18.00;99.90;;;;;;4955991;28;20028;-79
2023/07/27 06:30:38;;;;;;;3.25;2.95;;;18.00;99.90;;;;;;4955923;28;20098;-75
2023/07/27 06:33:05;;;;;;;2.95;2.75;;;18.00;99.90;;;;;;4956261;28;20030;-74
2023/07/27 06:35:31;;;;;;;3.65;2.63;;;18.10;99.90;;;;;;4956347;28;20034;-75
2023/07/27 06:37:56;;;;;;;3.78;3.47;;;18.20;99.90;;;;;;4949422;28;20032;-77
2023/07/27 06:40:22;;;;;;;3.10;2.90;;;18.10;99.90;;;;;;4945297;29;20095;-76
2023/07/27 06:42:48;;;;;;;3.22;3.03;;;18.10;99.90;;;;;;4936976;29;20028;-73
2023/07/27 06:45:13;;;;;;;6.88;2.63;;;18.20;99.90;;;;;;4942927;29;20074;-73
2023/07/27 06:47:39;;;;;;;2.78;2.58;;;18.30;99.90;;;;;;4941909;28;20035;-72
2023/07/27 06:50:06;;;;;;;3.63;3.30;;;18.40;99.90;;;;;;4951688;29;20075;-72
2023/07/27 06:52:31;;;;;;;3.42;2.90;;;18.30;99.90;;;;;;4956390;28;20511;-77
2023/07/27 06:54:57;;;;;;;3.00;2.80;;;18.30;99.90;;;;;;4955998;28;20023;-72
2023/07/27 06:57:26;;;;;;;3.22;3.03;;;18.20;99.90;;;;;;4955816;28;20034;-72
2023/07/27 06:59:52;;;;;;;3.58;3.28;;;18.30;99.90;;;;;;4954616;29;20039;-74
2023/07/27 07:02:18;;;;;;;3.30;3.00;;;18.30;99.90;;;;;;4956186;29;20074;-72
2023/07/27 07:04:45;;;;;;;3.28;3.08;;;18.30;99.90;;;;;;4945324;28;20102;-73
2023/07/27 07:07:11;;;;;;;3.75;3.53;;;18.30;99.90;;;;;;4936494;29;20032;-77
2023/07/27 07:09:38;;;;;;;4.97;3.85;;;18.40;99.90;;;;;;4943022;29;20538;-75
2023/07/27 07:12:05;;;;;;;3.67;3.38;;;18.50;99.90;;;;;;4954299;28;20170;-73
2023/07/27 07:14:31;;;;;;;3.92;3.63;;;18.40;99.90;;;;;;4952351;28;20039;-81
2023/07/27 07:17:00;;;;;;;4.00;3.03;;;18.40;99.90;;;;;;4936572;29;20065;-73
2023/07/27 07:19:26;;;;;;;4.13;3.78;;;18.50;99.90;;;;;;4954474;28;20086;-75
2023/07/27 07:21:52;;;;;;;3.80;3.50;;;18.60;99.90;;;;;;4954302;29;20031;-76
2023/07/27 07:24:18;;;;;;;4.00;3.70;;;18.60;99.90;;;;;;4953959;29;20110;-75
2023/07/27 07:26:45;;;;;;;3.63;3.42;;;18.60;99.90;;;;;;4953672;28;20604;-75
2023/07/27 07:29:11;;;;;;;3.63;3.33;;;18.70;99.90;;;;;;4938435;28;20016;-80
2023/07/27 07:31:37;;;;;;;3.97;3.63;;;18.80;99.90;;;;;;4953744;29;20134;-77
2023/07/27 07:34:03;;;;;;;3.33;3.03;;;18.80;99.90;;;;;;4954747;28;20054;-73
2023/07/27 07:36:28;;;;;;;4.18;3.78;;;18.90;99.90;;;;;;4954744;28;20358;-76
2023/07/27 07:38:54;;;;;;;3.50;3.30;;;18.90;99.90;;;;;;4955001;28;20061;-72
2023/07/27 07:41:20;;;;;;;2.88;2.67;;;19.00;99.90;;;;;;4955304;28;20031;-74
2023/07/27 07:43:45;;;;;;;3.70;3.40;;;18.90;99.90;;;;;;4955304;28;20032;-72
2023/07/27 07:46:12;;;;;;;3.40;3.10;;;19.00;99.90;;;;;;4955183;28;20581;-77
2023/07/27 07:48:38;;;;;;;2.63;2.42;;;18.90;99.90;;;;;;4955491;28;20031;-73
2023/07/27 07:51:09;;;;;;;2.30;2.10;;;18.90;99.90;;;;;;4936105;29;20034;-74
2023/07/27 07:53:35;;;;;;;3.17;2.63;;;18.90;99.90;;;;;;4935759;29;20035;-73
2023/07/27 07:56:01;;;;;;;2.53;2.33;;;19.10;99.90;;;;;;4935793;29;20034;-72
2023/07/27 07:58:26;;;;;;;3.00;2.58;;;19.10;99.90;;;;;;4951744;28;20059;-73
2023/07/27 08:00:52;;;;;;;4.18;2.50;;;19.10;99.90;;;;;;4954681;29;20839;-74
2023/07/27 08:03:18;;;;;;;2.80;2.60;;;19.10;99.90;;;;;;4953710;29;20078;-76
2023/07/27 08:05:43;;;;;;;2.63;2.42;;;19.20;99.90;;;;;;4937747;29;20027;-74
2023/07/27 08:08:09;;;;;;;4.40;2.28;;;19.20;99.90;;;;;;4951823;29;20070;-74
2023/07/27 08:10:35;;;;;;;4.53;2.47;;;19.30;99.90;;;;;;4940968;28;20028;-73
2023/07/27 08:13:00;;;;;;;2.88;2.65;;;19.30;99.90;;;;;;4945822;28;20038;-73
2023/07/27 08:15:26;;;;;;;3.13;2.30;;;19.40;99.90;;;;;;4954616;29;20031;-75
2023/07/27 08:17:52;;;;;;;2.65;2.45;;;19.30;99.90;;;;;;4954260;28;20031;-72
2023/07/27 08:20:17;;;;;;;2.00;1.90;;;19.40;99.90;;;;;;4954625;28;20042;-71
2023/07/27 08:22:43;;;;;;;2.10;1.98;;;19.40;99.90;;;;;;4953193;29;20388;-70
2023/07/27 08:25:09;;;;;;;2.75;2.20;;;19.50;99.90;;;;;;4953197;28;20081;-73
2023/07/27 08:27:34;;;;;;;3.20;2.20;;;19.50;99.90;;;;;;4953268;28;20592;-73
2023/07/27 08:30:01;;;;;;;2.30;2.10;;;19.50;99.90;;;;;;4953627;28;20471;-74
2023/07/27 08:32:26;;;;;;;2.88;1.75;;;19.50;99.90;;;;;;4969030;28;20023;-76
2023/07/27 08:34:52;;;;;;;2.15;1.70;;;19.60;99.90;;;;;;4953891;28;20110;-72
2023/07/27 08:37:18;;;;;;;1.95;1.73;;;19.60;99.90;;;;;;4954026;28;20484;-75
2023/07/27 08:39:44;;;;;;;1.88;1.77;;;19.60;99.90;;;;;;4937161;28;20039;-72
2023/07/27 08:42:15;;;;;;;1.98;1.75;;;19.60;99.90;;;;;;4939786;28;20353;-73
2023/07/27 08:44:43;;;;;;;1.98;1.88;;;19.70;99.90;;;;;;4954038;28;20050;-74
2023/07/27 08:47:09;;;;;;;1.70;1.60;;;19.70;99.90;;;;;;4954153;29;20031;-73
2023/07/27 08:49:36;;;;;;;2.45;1.70;;;19.70;99.90;;;;;;4953831;28;20059;-73
2023/07/27 08:52:02;;;;;;;1.70;1.60;;;19.70;99.90;;;;;;4953999;28;20039;-73
2023/07/27 08:54:29;;;;;;;2.50;1.50;;;19.80;99.90;;;;;;4953715;28;20026;-73
2023/07/27 08:56:54;;;;;;;2.05;1.92;;;19.70;99.90;;;;;;4953958;28;20027;-73
2023/07/27 08:59:20;;;;;;;1.70;1.60;;;19.80;99.90;;;;;;4952029;28;20518;-72
2023/07/27 09:01:46;;;;;;;2.35;1.30;;;19.80;99.90;;;;;;4953105;28;20106;-72
2023/07/27 09:04:12;;;;;;;1.58;1.48;;;19.80;99.90;;;;;;4953779;28;20159;-72
2023/07/27 09:06:39;;;;;;;1.25;1.25;;;19.90;99.90;;;;;;4953339;28;20062;-71
2023/07/27 09:09:22;;;;;;;1.33;1.20;;;19.90;99.90;;;;;;4953188;28;20111;-72
2023/07/27 09:11:48;;;;;;;1.08;1.00;;;20.00;99.90;;;;;;4953209;28;20054;-73
2023/07/27 09:14:18;;;;;;;1.45;1.10;;;20.10;99.90;;;;;;4953910;28;20032;-73
2023/07/27 09:16:44;;;;;;;1.33;1.00;;;20.10;99.90;;;;;;4953593;28;20055;-75
2023/07/27 09:19:11;;;;;;;1.60;0.60;;;20.10;99.90;;;;;;4953068;28;20380;-75
2023/07/27 09:21:43;;;;;;;1.00;0.75;;;20.00;99.90;;;;;;4953260;28;20042;-73
2023/07/27 09:24:10;;;;;;;1.35;0.90;;;20.00;99.90;;;;;;4953808;28;20039;-75
2023/07/27 09:26:52;;;;;;;0.90;0.70;;;20.10;99.90;;;;;;4953803;28;20041;-75
2023/07/27 09:29:20;;;;;;;2.50;0.90;;;20.20;99.90;;;;;;4953602;28;20024;-74
2023/07/27 09:31:56;;;;;;;1.23;0.80;;;20.30;99.90;;;;;;4952686;29;20027;-76
2023/07/27 09:34:22;;;;;;;0.93;0.70;;;20.20;99.90;;;;;;4953380;28;20602;-72
2023/07/27 09:36:47;;;;;;;1.15;0.63;;;20.30;99.90;;;;;;4953481;28;20057;-72
2023/07/27 09:39:17;;;;;;;0.88;0.75;;;20.30;99.90;;;;;;4952318;28;20053;-71
2023/07/27 09:41:44;;;;;;;0.73;0.73;;;20.30;99.90;;;;;;4953679;28;20106;-73
2023/07/27 09:44:17;;;;;;;0.77;0.50;;;20.30;99.90;;;;;;4952571;28;20115;-71
2023/07/27 09:46:47;;;;;;;0.90;0.70;;;20.20;99.90;;;;;;4941096;28;20033;-71
2023/07/27 09:49:13;;;;;;;1.67;0.60;;;20.30;99.90;;;;;;4954368;28;20032;-74
2023/07/27 09:51:39;;;;;;;0.95;0.57;;;20.40;99.90;;;;;;4951817;29;20027;-75
2023/07/27 09:54:06;;;;;;;0.40;0.40;;;20.40;99.90;;;;;;4940454;28;20031;-75
2023/07/27 09:56:33;;;;;;;1.75;0.50;;;20.40;99.90;;;;;;4947202;28;20432;-76
2023/07/27 09:58:59;;;;;;;2.58;0.80;;;20.40;99.90;;;;;;4946733;28;20118;-73
2023/07/27 10:01:26;;;;;;;0.57;0.43;;;20.60;99.90;;;;;;4947689;28;20075;-75
2023/07/27 10:03:57;;;;;;;0.85;0.63;;;20.60;99.90;;;;;;4947264;28;20026;-73
2023/07/27 10:06:28;;;;;;;1.85;0.50;;;20.60;99.90;;;;;;4946983;28;20031;-77
2023/07/27 10:08:54;;;;;;;1.95;0.60;;;20.70;99.90;;;;;;4946361;28;20387;-74
2023/07/27 10:11:50;;;;;;;2.08;0.82;;;20.70;99.90;;;;;;4948172;28;20106;-73
2023/07/27 10:14:18;;;;;;;2.90;0.60;;;20.80;99.90;;;;;;4948695;28;20054;-75
2023/07/27 10:17:07;;;;;;;2.10;0.47;;;20.70;99.90;;;;;;4950380;28;20031;-76
2023/07/27 10:19:41;;;;;;;5.50;0.57;;;20.80;99.90;;;;;;4949095;28;20050;-77
2023/07/27 10:22:18;;;;;;;1.42;0.80;;;20.80;99.90;;;;;;4950978;29;20122;-71
2023/07/27 10:24:50;;;;;;;2.17;0.70;;;20.80;99.90;;;;;;4950749;28;20042;-73
2023/07/27 10:27:21;;;;;;;0.60;0.60;;;20.80;99.90;;;;;;4948225;28;20027;-76
2023/07/27 10:30:08;;;;;;;2.05;1.20;;;20.70;99.90;;;;;;4949227;28;20031;-74
2023/07/27 10:32:36;;;;;;;3.25;0.90;;;20.70;99.90;;;;;;4949715;29;20424;-72
2023/07/27 10:35:07;;;;;;;1.15;1.05;;;20.80;99.90;;;;;;4947706;28;20061;-74
2023/07/27 10:37:53;;;;;;;1.35;1.00;;;20.70;99.90;;;;;;4944369;28;20094;-76
2023/07/27 10:40:26;;;;;;;1.20;1.10;;;20.80;99.90;;;;;;4949823;29;20050;-76
2023/07/27 10:42:57;;;;;;;1.10;1.00;;;20.80;99.90;;;;;;4949933;28;20098;-73
2023/07/27 10:45:26;;;;;;;1.08;0.98;;;20.80;99.90;;;;;;4949626;28;20035;-75
2023/07/27 10:47:56;;;;;;;1.63;1.52;;;20.80;99.90;;;;;;4948378;28;20035;-72
2023/07/27 10:50:22;;;;;;;1.48;1.38;;;20.80;99.90;;;;;;4950122;28;20190;-77
2023/07/27 10:52:52;;;;;;;1.27;1.27;;;20.90;99.90;;;;;;4948981;29;20634;-76
2023/07/27 10:55:20;;;;;;;2.17;1.98;;;20.80;99.90;;;;;;4950428;28;20039;-73
2023/07/27 10:57:46;;;;;;;1.60;1.50;;;20.90;99.90;;;;;;4949805;28;20027;-78
2023/07/27 11:00:13;;;;;;;1.60;1.50;;;20.90;99.90;;;;;;4949734;28;20031;-74
2023/07/27 11:02:41;;;;;;;1.30;1.17;;;20.90;99.90;;;;;;4948774;28;20024;-75
2023/07/27 11:05:08;;;;;;;1.52;1.23;;;20.90;99.90;;;;;;4949053;28;20023;-75
2023/07/27 11:07:39;;;;;;;1.40;1.30;;;21.00;99.90;;;;;;4949721;28;20027;-74
2023/07/27 11:10:09;;;;;;;1.35;1.13;;;21.00;99.90;;;;;;4949921;28;20841;-75
2023/07/27 11:12:52;;;;;;;0.90;0.88;;;20.90;99.90;;;;;;4948125;28;20027;-77
2023/07/27 11:15:31;;;;;;;1.38;1.00;;;21.00;99.90;;;;;;4946761;28;20996;-74
2023/07/27 11:18:01;;;;;;;1.67;0.80;;;21.00;99.90;;;;;;4948478;29;20030;-75
2023/07/27 11:20:28;;;;;;;1.35;0.70;;;20.90;99.90;;;;;;4949869;29;20412;-76
2023/07/27 11:22:55;;;;;;;0.50;0.50;;;20.80;99.90;;;;;;4949543;28;20023;-75
2023/07/27 11:25:22;;;;;;;0.55;0.55;;;20.70;99.90;;;;;;4948961;28;20031;-79
2023/07/27 11:27:49;;;;;;;1.05;0.90;;;20.80;99.90;;;;;;4948422;28;20031;-75
2023/07/27 11:30:17;;;;;;;0.98;0.70;;;20.90;99.90;;;;;;4949461;28;20082;-75
2023/07/27 11:33:01;;;;;;;0.90;0.77;;;20.90;99.90;;;;;;4949274;28;20069;-75
2023/07/27 11:35:26;;;;;;;1.75;0.70;;;21.00;99.90;;;;;;4947490;28;20531;-77
2023/07/27 11:37:52;;;;;;;1.30;0.50;;;20.90;99.90;;;;;;4948770;28;20043;-81
2023/07/27 11:40:19;;;;;;;1.65;1.00;;;21.00;99.90;;;;;;4948978;28;20746;-74
2023/07/27 11:42:45;;;;;;;1.42;0.80;;;21.10;99.90;;;;;;4949111;28;20492;-74
2023/07/27 11:45:11;;;;;;;0.80;0.80;;;21.00;99.90;;;;;;4949025;28;20038;-73
2023/07/27 11:47:38;;;;;;;1.73;0.80;;;21.10;99.90;;;;;;4947456;28;20350;-73
2023/07/27 11:50:08;;;;;;;0.80;0.80;;;21.00;99.90;;;;;;4949249;28;20023;-73
2023/07/27 11:52:38;;;;;;;0.80;0.80;;;21.10;99.90;;;;;;4947397;28;20083;-72
2023/07/27 11:55:04;;;;;;;1.98;1.05;;;21.00;99.90;;;;;;4948507;28;20031;-73
2023/07/27 11:57:30;;;;;;;1.50;1.05;;;20.90;99.90;;;;;;4948196;28;20034;-73
2023/07/27 12:00:22;;;;;;;1.92;1.20;;;21.00;99.90;;;;;;4947993;29;20033;-74
2023/07/27 12:02:49;;;;;;;1.70;1.60;;;20.80;99.90;;;;;;4946843;28;20071;-75
2023/07/27 12:05:17;;;;;;;1.23;1.13;;;21.00;99.90;;;;;;4948713;28;20027;-74
2023/07/27 12:07:45;;;;;;;2.58;1.30;;;21.10;99.90;;;;;;4948784;28;20035;-74
2023/07/27 12:10:23;;;;;;;2.35;1.50;;;21.00;99.90;;;;;;4949124;28;20057;-73
2023/07/27 12:13:01;;;;;;;1.77;1.67;;;21.00;99.90;;;;;;4947460;28;20410;-74
2023/07/27 12:15:28;;;;;;;3.47;1.70;;;21.20;99.90;;;;;;4947185;28;20066;-75
2023/07/27 12:17:56;;;;;;;1.90;1.80;;;21.20;99.90;;;;;;4948319;28;20364;-73
2023/07/27 12:20:25;;;;;;;2.10;1.90;;;21.10;99.90;;;;;;4946680;29;20043;-73
2023/07/27 12:22:51;;;;;;;2.75;2.00;;;21.20;99.90;;;;;;4948499;28;20031;-73
2023/07/27 12:25:17;;;;;;;4.20;2.97;;;21.00;99.90;;;;;;4948154;28;20388;-73
2023/07/27 12:27:43;;;;;;;3.33;3.13;;;21.10;99.90;;;;;;4947835;28;20070;-71
2023/07/27 12:30:10;;;;;;;4.82;4.20;;;21.10;99.90;;;;;;4948142;28;20019;-70
2023/07/27 12:32:36;;;;;;;3.92;3.10;;;21.10;99.90;;;;;;4948677;28;20031;-69
2023/07/27 12:35:03;;;;;;;3.47;3.22;;;21.10;99.90;;;;;;4948324;29;20033;-77
2023/07/27 12:37:29;;;;;;;3.65;3.35;;;21.10;99.90;;;;;;4947087;28;20086;-72
2023/07/27 12:39:55;;;;;;;4.00;3.70;;;21.20;99.90;;;;;;4948111;29;20019;-76
2023/07/27 12:42:21;;;;;;;3.67;3.35;;;21.10;99.90;;;;;;4948988;28;20105;-72
2023/07/27 12:44:46;;;;;;;4.75;3.60;;;21.20;99.90;;;;;;4947162;28;20023;-72
2023/07/27 12:47:12;;;;;;;6.18;4.15;;;21.20;99.90;;;;;;4947412;28;20034;-73